createdAt,value
2018-11-14T00:00:33.186Z,8.50
2018-11-14T00:03:03.206Z,8.50
2018-11-14T00:05:32.442Z,8.50
2018-11-14T00:08:01.852Z,8.60
2018-11-14T00:10:31.051Z,8.60
2018-11-14T00:13:00.384Z,8.60
2018-11-14T00:15:29.432Z,8.60
2018-11-14T00:17:59.116Z,8.60
2018-11-14T00:20:28.442Z,8.60
2018-11-14T00:22:57.852Z,8.80
2018-11-14T00:25:27.009Z,8.80
2018-11-14T00:27:56.372Z,8.80
2018-11-14T00:30:26.634Z,8.90
2018-11-14T00:32:55.885Z,9.00
2018-11-14T00:35:25.099Z,9.10
2018-11-14T00:37:55.520Z,9.10
2018-11-14T00:40:24.531Z,9.10
2018-11-14T00:42:53.753Z,9.00
2018-11-14T00:45:23.144Z,9.10
2018-11-14T00:47:52.390Z,9.10
2018-11-14T00:50:22.087Z,9.10
2018-11-14T00:52:51.677Z,9.10
2018-11-14T00:55:21.895Z,9.20
2018-11-14T00:57:52.002Z,9.30
2018-11-14T01:00:22.604Z,9.30
2018-11-14T01:02:51.971Z,9.30
2018-11-14T01:05:21.356Z,9.30
2018-11-14T01:07:50.754Z,9.40
2018-11-14T01:10:21.118Z,9.40
2018-11-14T01:12:50.756Z,9.40
2018-11-14T01:15:21.424Z,9.30
2018-11-14T01:17:50.475Z,9.30
2018-11-14T01:20:21.361Z,9.30
2018-11-14T01:22:50.672Z,9.40
2018-11-14T01:25:20.034Z,9.30
2018-11-14T01:27:49.130Z,9.30
2018-11-14T01:30:23.165Z,9.40
2018-11-14T01:32:52.643Z,9.50
2018-11-14T01:35:21.866Z,9.50
2018-11-14T01:37:50.858Z,9.60
2018-11-14T01:40:21.848Z,9.50
2018-11-14T01:42:54.289Z,9.50
2018-11-14T01:45:23.365Z,9.60
2018-11-14T01:47:52.608Z,9.70
2018-11-14T01:50:21.792Z,9.80
2018-11-14T01:52:51.224Z,9.70
2018-11-14T01:55:21.107Z,9.70
2018-11-14T01:57:50.780Z,9.60
2018-11-14T02:00:22.430Z,9.60
2018-11-14T02:02:51.775Z,9.70
2018-11-14T02:05:20.811Z,9.60
2018-11-14T02:07:50.425Z,9.60
2018-11-14T02:10:20.395Z,9.70
2018-11-14T02:12:50.109Z,9.80
2018-11-14T02:15:22.365Z,9.70
2018-11-14T02:17:51.905Z,9.80
2018-11-14T02:20:21.382Z,9.90
2018-11-14T02:22:50.774Z,9.90
2018-11-14T02:25:19.869Z,9.90
2018-11-14T02:27:49.077Z,9.90
2018-11-14T02:30:21.381Z,9.90
2018-11-14T02:32:50.564Z,9.90
2018-11-14T02:35:20.007Z,9.90
2018-11-14T02:37:49.771Z,10.00
2018-11-14T02:40:20.276Z,9.90
2018-11-14T02:42:49.274Z,9.90
2018-11-14T02:45:19.511Z,10.00
2018-11-14T02:47:49.285Z,10.10
2018-11-14T02:50:18.770Z,10.10
2018-11-14T02:52:47.866Z,10.10
2018-11-14T02:55:17.692Z,10.10
2018-11-14T02:57:47.048Z,10.20
2018-11-14T03:00:18.335Z,10.20
2018-11-14T03:02:47.740Z,10.20
2018-11-14T03:05:16.993Z,10.20
2018-11-14T03:07:46.287Z,10.20
2018-11-14T03:10:17.359Z,10.30
2018-11-14T03:12:46.495Z,10.20
2018-11-14T03:15:17.983Z,10.20
2018-11-14T03:17:46.873Z,10.20
2018-11-14T03:20:20.215Z,10.10
2018-11-14T03:22:49.594Z,10.10
2018-11-14T03:25:18.769Z,10.10
2018-11-14T03:27:48.076Z,10.10
2018-11-14T03:30:18.336Z,10.10
2018-11-14T03:32:47.581Z,10.10
2018-11-14T03:35:17.174Z,10.20
2018-11-14T03:37:46.672Z,10.20
2018-11-14T03:40:16.670Z,10.20
2018-11-14T03:42:45.759Z,10.30
2018-11-14T03:45:15.736Z,10.30
2018-11-14T03:47:45.037Z,10.30
2018-11-14T03:50:14.473Z,10.20
2018-11-14T03:52:43.540Z,10.20
2018-11-14T03:55:12.933Z,10.20
2018-11-14T03:57:42.057Z,10.10
2018-11-14T04:00:14.088Z,10.00
2018-11-14T04:02:43.942Z,10.00
2018-11-14T04:05:13.211Z,10.00
2018-11-14T04:07:42.528Z,10.00
2018-11-14T04:10:12.524Z,9.90
2018-11-14T04:12:41.850Z,9.80
2018-11-14T04:15:12.343Z,9.80
2018-11-14T04:17:41.472Z,9.90
2018-11-14T04:20:12.739Z,9.90
2018-11-14T04:22:41.972Z,9.80
2018-11-14T04:25:13.069Z,9.90
2018-11-14T04:27:43.273Z,9.90
2018-11-14T04:30:14.337Z,9.90
2018-11-14T04:32:43.982Z,10.00
2018-11-14T04:35:14.443Z,9.90
2018-11-14T04:37:43.707Z,9.70
2018-11-14T04:40:14.554Z,9.70
2018-11-14T04:42:43.851Z,9.70
2018-11-14T04:45:14.404Z,9.60
2018-11-14T04:47:45.466Z,9.60
2018-11-14T04:50:17.132Z,9.70
2018-11-14T04:52:47.510Z,9.60
2018-11-14T04:55:18.222Z,9.50
2018-11-14T04:57:47.917Z,9.50
2018-11-14T05:00:17.822Z,9.70
2018-11-14T05:02:47.748Z,9.70
2018-11-14T05:05:18.808Z,9.70
2018-11-14T05:07:48.303Z,9.70
2018-11-14T05:10:19.685Z,9.80
2018-11-14T05:12:48.928Z,9.80
2018-11-14T05:15:19.340Z,9.90
2018-11-14T05:17:49.228Z,10.00
2018-11-14T05:20:19.440Z,10.00
2018-11-14T05:22:48.997Z,10.00
2018-11-14T05:25:18.309Z,10.00
2018-11-14T05:27:47.769Z,10.00
2018-11-14T05:30:18.169Z,10.00
2018-11-14T05:32:48.332Z,10.00
2018-11-14T05:35:17.595Z,9.90
2018-11-14T05:37:47.109Z,9.80
2018-11-14T05:40:19.331Z,9.80
2018-11-14T05:42:48.997Z,9.80
2018-11-14T05:45:20.678Z,9.70
2018-11-14T05:47:49.639Z,9.60
2018-11-14T05:50:19.710Z,9.60
2018-11-14T05:52:48.577Z,9.60
2018-11-14T05:55:17.909Z,9.60
2018-11-14T05:57:46.704Z,9.60
2018-11-14T06:00:21.672Z,9.50
2018-11-14T06:02:51.179Z,9.50
2018-11-14T06:05:20.376Z,9.60
2018-11-14T06:07:49.534Z,9.60
2018-11-14T06:10:18.773Z,9.60
2018-11-14T06:12:47.951Z,9.60
2018-11-14T06:15:18.412Z,9.50
2018-11-14T06:17:47.693Z,9.60
2018-11-14T06:20:20.741Z,9.60
2018-11-14T06:22:50.452Z,9.60
2018-11-14T06:25:36.651Z,9.60
2018-11-14T06:28:07.181Z,9.60
2018-11-14T06:30:36.854Z,9.50
2018-11-14T06:33:07.090Z,9.50
2018-11-14T06:35:36.345Z,9.60
2018-11-14T06:38:06.265Z,9.50
2018-11-14T06:40:35.347Z,9.50
2018-11-14T06:43:05.091Z,9.60
2018-11-14T06:45:34.830Z,9.60
2018-11-14T06:48:04.505Z,9.60
2018-11-14T06:50:33.484Z,9.60
2018-11-14T06:53:03.974Z,9.70
2018-11-14T06:55:33.153Z,9.70
2018-11-14T06:58:02.475Z,9.70
2018-11-14T07:00:32.964Z,9.60
2018-11-14T07:03:03.517Z,9.60
2018-11-14T07:05:32.691Z,9.60
2018-11-14T07:08:01.750Z,9.30
2018-11-14T07:10:32.384Z,9.20
2018-11-14T07:13:12.620Z,9.00
2018-11-14T07:15:42.466Z,8.90
2018-11-14T07:18:12.350Z,8.90
2018-11-14T07:20:42.621Z,8.80
2018-11-14T07:23:12.733Z,8.70
2018-11-14T07:25:42.135Z,8.80
2018-11-14T07:28:11.073Z,8.90
2018-11-14T07:30:39.866Z,9.10
2018-11-14T07:33:11.552Z,9.20
2018-11-14T07:35:40.632Z,9.30
2018-11-14T07:38:48.381Z,9.30
2018-11-14T07:41:24.507Z,9.30
2018-11-14T07:43:53.782Z,9.40
2018-11-14T07:46:23.882Z,9.40
2018-11-14T07:48:52.995Z,9.50
2018-11-14T07:51:22.571Z,9.50
2018-11-14T07:53:51.972Z,9.60
2018-11-14T07:56:20.847Z,9.50
2018-11-14T07:58:50.293Z,9.60
2018-11-14T08:01:19.041Z,9.60
2018-11-14T08:03:48.224Z,9.60
2018-11-14T08:06:17.400Z,9.60
2018-11-14T08:08:47.147Z,9.70
2018-11-14T08:11:16.338Z,9.70
2018-11-14T08:13:47.840Z,9.70
2018-11-14T08:16:17.025Z,9.70
2018-11-14T08:18:46.201Z,9.80
2018-11-14T08:21:15.395Z,9.70
2018-11-14T08:23:45.072Z,9.70
2018-11-14T08:26:13.876Z,9.70
2018-11-14T08:28:42.744Z,9.60
2018-11-14T08:31:11.934Z,9.70
2018-11-14T08:33:41.232Z,9.70
2018-11-14T08:36:10.292Z,9.70
2018-11-14T08:38:39.365Z,9.70
2018-11-14T08:41:08.589Z,9.70
2018-11-14T08:43:37.837Z,9.70
2018-11-14T08:46:07.170Z,9.70
2018-11-14T08:48:36.452Z,9.80
2018-11-14T08:51:06.003Z,9.90
2018-11-14T08:53:35.117Z,9.80
2018-11-14T08:56:04.558Z,9.80
2018-11-14T08:58:34.421Z,9.90
2018-11-14T09:01:03.356Z,9.90
2018-11-14T09:03:32.536Z,10.00
2018-11-14T09:06:01.858Z,10.00
2018-11-14T09:08:30.720Z,10.10
2018-11-14T09:10:59.887Z,10.10
2018-11-14T09:13:29.287Z,10.10
2018-11-14T09:15:58.433Z,10.10
2018-11-14T09:18:28.015Z,10.20
2018-11-14T09:20:57.281Z,10.20
2018-11-14T09:23:26.570Z,10.20
2018-11-14T09:25:55.788Z,10.20
2018-11-14T09:28:25.085Z,10.20
2018-11-14T09:30:54.256Z,10.20
2018-11-14T09:33:23.009Z,10.30
2018-11-14T09:35:52.081Z,10.30
2018-11-14T09:38:21.224Z,10.40
2018-11-14T09:40:50.616Z,10.40
2018-11-14T09:43:19.875Z,10.50
2018-11-14T09:45:48.951Z,10.70
2018-11-14T09:48:18.036Z,11.50
2018-11-14T09:50:47.036Z,11.70
2018-11-14T09:53:16.181Z,12.10
2018-11-14T09:55:45.676Z,12.10
2018-11-14T09:58:14.685Z,12.50
2018-11-14T10:00:44.196Z,12.70
2018-11-14T10:03:20.065Z,12.70
2018-11-14T10:05:49.482Z,12.10
2018-11-14T10:08:18.606Z,11.80
2018-11-14T10:10:47.558Z,11.50
2018-11-14T10:13:18.766Z,11.50
2018-11-14T10:15:48.031Z,11.30
2018-11-14T10:18:16.949Z,11.30
2018-11-14T10:20:46.057Z,11.30
2018-11-14T10:23:15.626Z,11.30
2018-11-14T10:25:44.565Z,11.30
2018-11-14T10:28:13.941Z,11.20
2018-11-14T10:30:43.103Z,11.20
2018-11-14T10:33:12.050Z,11.30
2018-11-14T10:35:41.333Z,11.30
2018-11-14T10:38:11.368Z,11.40
2018-11-14T10:40:40.782Z,11.40
2018-11-14T10:43:10.043Z,11.40
2018-11-14T10:45:39.396Z,11.40
2018-11-14T10:48:08.775Z,11.60
2018-11-14T10:50:38.014Z,11.70
2018-11-14T10:53:07.158Z,11.70
2018-11-14T10:55:36.300Z,11.70
2018-11-14T10:58:05.609Z,11.80
2018-11-14T11:00:40.005Z,11.80
2018-11-14T11:03:17.124Z,11.70
2018-11-14T11:05:51.605Z,11.70
2018-11-14T11:08:27.189Z,11.80
2018-11-14T11:11:01.112Z,11.80
2018-11-14T11:13:35.475Z,11.80
2018-11-14T11:16:09.654Z,11.80
2018-11-14T11:18:38.936Z,11.80
2018-11-14T11:21:07.973Z,11.80
2018-11-14T11:23:37.452Z,11.80
2018-11-14T11:26:06.909Z,11.80
2018-11-14T11:28:36.205Z,11.80
2018-11-14T11:31:05.367Z,11.80
2018-11-14T11:33:34.571Z,11.80
2018-11-14T11:36:03.828Z,11.80
2018-11-14T11:38:32.826Z,11.80
2018-11-14T11:41:02.072Z,11.80
2018-11-14T11:43:31.375Z,11.80
2018-11-14T11:46:00.545Z,11.90
2018-11-14T11:48:29.565Z,12.00
2018-11-14T11:50:58.729Z,12.10
2018-11-14T11:53:27.983Z,12.30
2018-11-14T11:55:57.562Z,12.50
2018-11-14T11:58:26.773Z,12.20
2018-11-14T12:00:56.098Z,12.10
2018-11-14T12:03:25.329Z,12.20
2018-11-14T12:05:54.521Z,12.20
2018-11-14T12:08:24.386Z,12.20
2018-11-14T12:10:53.640Z,12.10
2018-11-14T12:13:22.875Z,12.10
2018-11-14T12:15:52.031Z,12.10
2018-11-14T12:18:21.481Z,12.10
2018-11-14T12:20:50.996Z,12.10
2018-11-14T12:23:20.503Z,12.10
2018-11-14T12:25:49.700Z,12.10
2018-11-14T12:28:18.925Z,12.10
2018-11-14T12:30:48.594Z,12.20
2018-11-14T12:33:17.699Z,12.20
2018-11-14T12:35:47.227Z,12.30
2018-11-14T12:38:16.513Z,12.40
2018-11-14T12:40:45.525Z,12.30
2018-11-14T12:43:14.789Z,12.20
2018-11-14T12:45:43.751Z,12.20
2018-11-14T12:48:12.954Z,12.30
2018-11-14T12:50:42.809Z,12.40
2018-11-14T12:53:11.798Z,12.50
2018-11-14T12:55:40.938Z,12.60
2018-11-14T12:58:10.172Z,12.60
2018-11-14T13:00:39.623Z,12.70
2018-11-14T13:03:09.796Z,12.60
2018-11-14T13:05:39.243Z,12.50
2018-11-14T13:08:08.400Z,12.70
2018-11-14T13:10:37.554Z,12.70
2018-11-14T13:13:06.727Z,12.70
2018-11-14T13:15:35.816Z,12.60
2018-11-14T13:18:05.109Z,12.70
2018-11-14T13:20:34.202Z,12.80
2018-11-14T13:23:03.678Z,12.80
2018-11-14T13:25:33.181Z,12.90
2018-11-14T13:28:02.353Z,12.80
2018-11-14T13:30:31.411Z,12.80
2018-11-14T13:33:00.673Z,12.70
2018-11-14T13:35:29.638Z,12.90
2018-11-14T13:37:58.925Z,12.90
2018-11-14T13:40:27.805Z,12.80
2018-11-14T13:42:56.978Z,12.70
2018-11-14T13:45:26.151Z,12.70
2018-11-14T13:47:55.768Z,12.80
2018-11-14T13:50:25.126Z,12.90
2018-11-14T13:52:54.102Z,12.70
2018-11-14T13:55:23.262Z,12.60
2018-11-14T13:57:52.746Z,12.70
2018-11-14T14:00:22.771Z,12.60
2018-11-14T14:02:53.117Z,12.70
2018-11-14T14:05:23.533Z,12.80
2018-11-14T14:07:52.768Z,12.70
2018-11-14T14:10:21.694Z,12.60
2018-11-14T14:12:52.305Z,12.50
2018-11-14T14:15:24.562Z,12.50
2018-11-14T14:17:53.676Z,12.50
2018-11-14T14:20:23.488Z,12.50
2018-11-14T14:22:52.757Z,12.30
2018-11-14T14:25:22.851Z,12.40
2018-11-14T14:27:51.935Z,12.20
2018-11-14T14:30:22.516Z,12.40
2018-11-14T14:32:52.119Z,12.40
2018-11-14T14:35:22.316Z,12.30
2018-11-14T14:37:51.383Z,12.20
2018-11-14T14:40:22.134Z,12.20
2018-11-14T14:42:51.493Z,12.20
2018-11-14T14:45:22.602Z,12.20
2018-11-14T14:47:52.115Z,12.20
2018-11-14T14:50:21.611Z,12.30
2018-11-14T14:52:50.878Z,12.30
2018-11-14T14:55:23.033Z,12.10
2018-11-14T14:57:52.081Z,11.90
2018-11-14T15:00:22.282Z,11.80
2018-11-14T15:02:51.566Z,11.60
2018-11-14T15:05:21.008Z,11.80
2018-11-14T15:07:50.644Z,11.90
2018-11-14T15:10:20.881Z,11.90
2018-11-14T15:12:50.111Z,11.90
2018-11-14T15:15:19.971Z,11.90
2018-11-14T15:17:49.321Z,11.80
2018-11-14T15:20:20.219Z,11.70
2018-11-14T15:22:49.810Z,11.60
2018-11-14T15:25:20.821Z,11.50
2018-11-14T15:27:50.484Z,11.50
2018-11-14T15:30:22.727Z,11.50
2018-11-14T15:32:51.872Z,11.50
2018-11-14T15:35:21.164Z,11.50
2018-11-14T15:37:50.305Z,11.50
2018-11-14T15:40:21.121Z,11.50
2018-11-14T15:42:50.460Z,11.30
2018-11-14T15:45:21.214Z,11.20
2018-11-14T15:47:54.184Z,11.10
2018-11-14T15:50:27.469Z,11.00
2018-11-14T15:52:57.188Z,10.90
2018-11-14T15:55:26.332Z,10.80
2018-11-14T15:57:55.801Z,10.70
2018-11-14T16:00:26.523Z,10.70
2018-11-14T16:02:55.666Z,10.60
2018-11-14T16:05:25.935Z,10.60
2018-11-14T16:07:56.631Z,10.70
2018-11-14T16:10:27.083Z,10.70
2018-11-14T16:12:56.175Z,10.60
2018-11-14T16:15:26.798Z,10.60
2018-11-14T16:17:55.919Z,10.60
2018-11-14T16:20:25.911Z,10.60
2018-11-14T16:22:55.147Z,10.50
2018-11-14T16:25:24.996Z,10.40
2018-11-14T16:27:55.397Z,10.30
2018-11-14T16:30:26.988Z,10.10
2018-11-14T16:32:57.445Z,10.10
2018-11-14T16:35:26.626Z,10.00
2018-11-14T16:37:55.942Z,9.80
2018-11-14T16:40:27.329Z,9.80
2018-11-14T16:42:57.496Z,9.60
2018-11-14T16:45:26.411Z,9.60
2018-11-14T16:47:55.471Z,9.70
2018-11-14T16:50:25.088Z,9.60
2018-11-14T16:52:54.095Z,9.60
2018-11-14T16:55:23.611Z,9.50
2018-11-14T16:57:54.029Z,9.40
2018-11-14T17:00:24.757Z,9.50
2018-11-14T17:02:53.948Z,9.60
2018-11-14T17:05:25.858Z,9.50
2018-11-14T17:07:54.946Z,9.60
2018-11-14T17:10:24.709Z,9.50
2018-11-14T17:12:56.622Z,9.40
2018-11-14T17:15:26.659Z,9.50
2018-11-14T17:17:56.213Z,9.40
2018-11-14T17:20:25.718Z,9.40
2018-11-14T17:22:55.569Z,9.30
2018-11-14T17:25:24.621Z,9.20
2018-11-14T17:27:53.848Z,9.10
2018-11-14T17:30:25.013Z,8.90
2018-11-14T17:32:54.749Z,8.80
2018-11-14T17:35:24.708Z,8.70
2018-11-14T17:37:54.373Z,8.70
2018-11-14T17:40:26.018Z,8.60
2018-11-14T17:42:55.431Z,8.50
2018-11-14T17:45:26.009Z,8.50
2018-11-14T17:47:55.966Z,8.50
2018-11-14T17:50:28.668Z,8.40
2018-11-14T17:52:58.888Z,8.30
2018-11-14T17:55:28.328Z,8.30
2018-11-14T17:57:57.250Z,8.20
2018-11-14T18:00:27.789Z,8.20
2018-11-14T18:02:57.510Z,8.20
2018-11-14T18:05:28.269Z,8.10
2018-11-14T18:07:57.588Z,8.10
2018-11-14T18:10:27.980Z,8.00
2018-11-14T18:12:58.441Z,8.00
2018-11-14T18:15:27.582Z,7.90
2018-11-14T18:17:57.281Z,7.80
2018-11-14T18:20:27.715Z,7.80
2018-11-14T18:22:57.067Z,7.80
2018-11-14T18:25:26.430Z,7.70
2018-11-14T18:27:55.500Z,7.70
2018-11-14T18:30:26.252Z,7.70
2018-11-14T18:32:56.223Z,7.60
2018-11-14T18:35:25.829Z,7.50
2018-11-14T18:37:55.865Z,7.50
2018-11-14T18:40:28.116Z,7.40
2018-11-14T18:42:57.686Z,7.40
2018-11-14T18:45:28.590Z,7.40
2018-11-14T18:47:58.447Z,7.40
2018-11-14T18:50:28.088Z,7.30
2018-11-14T18:52:57.451Z,7.30
2018-11-14T18:55:30.495Z,7.30
2018-11-14T18:58:00.891Z,7.20
2018-11-14T19:00:31.173Z,7.20
2018-11-14T19:03:00.595Z,7.10
2018-11-14T19:05:29.826Z,7.00
2018-11-14T19:07:58.837Z,6.90
2018-11-14T19:10:29.280Z,6.90
2018-11-14T19:12:58.566Z,6.70
2018-11-14T19:15:29.804Z,6.70
2018-11-14T19:17:59.229Z,6.70
2018-11-14T19:20:29.421Z,6.70
2018-11-14T19:22:59.394Z,6.70
2018-11-14T19:25:30.282Z,6.80
2018-11-14T19:27:59.688Z,6.60
2018-11-14T19:30:31.041Z,6.50
2018-11-14T19:33:00.666Z,6.50
2018-11-14T19:35:30.105Z,6.40
2018-11-14T19:37:59.815Z,6.60
2018-11-14T19:40:33.191Z,6.30
2018-11-14T19:43:03.111Z,6.40
2018-11-14T19:45:34.616Z,6.30
2018-11-14T19:48:07.836Z,6.30
2018-11-14T19:50:37.066Z,6.30
2018-11-14T19:53:06.170Z,6.20
2018-11-14T19:55:36.055Z,6.10
2018-11-14T19:58:05.729Z,6.10
2018-11-14T20:00:37.186Z,6.00
2018-11-14T20:03:07.048Z,6.10
2018-11-14T20:05:36.689Z,6.00
2018-11-14T20:08:06.232Z,6.00
2018-11-14T20:10:35.627Z,5.90
2018-11-14T20:13:05.215Z,5.70
2018-11-14T20:15:35.522Z,5.90
2018-11-14T20:18:05.071Z,5.90
2018-11-14T20:20:35.721Z,5.90
2018-11-14T20:23:05.022Z,5.90
2018-11-14T20:25:34.484Z,5.90
2018-11-14T20:28:03.418Z,5.90
2018-11-14T20:30:34.921Z,5.90
2018-11-14T20:33:05.483Z,5.80
2018-11-14T20:35:34.908Z,5.70
2018-11-14T20:38:04.047Z,5.70
2018-11-14T20:40:33.336Z,5.70
2018-11-14T20:43:02.727Z,5.50
2018-11-14T20:45:33.334Z,5.50
2018-11-14T20:48:02.292Z,5.50
2018-11-14T20:50:31.457Z,5.50
2018-11-14T20:53:01.925Z,5.50
2018-11-14T20:55:31.497Z,5.50
2018-11-14T20:58:01.186Z,5.40
2018-11-14T21:00:31.716Z,5.40
2018-11-14T21:03:02.094Z,5.40
2018-11-14T21:05:31.552Z,5.50
2018-11-14T21:08:00.705Z,5.40
2018-11-14T21:10:34.563Z,5.30
2018-11-14T21:13:04.261Z,5.30
2018-11-14T21:15:34.828Z,5.30
2018-11-14T21:18:04.550Z,5.30
2018-11-14T21:20:33.792Z,5.20
2018-11-14T21:23:03.154Z,5.30
2018-11-14T21:25:32.641Z,5.10
2018-11-14T21:28:01.739Z,5.20
2018-11-14T21:30:31.495Z,5.20
2018-11-14T21:33:00.804Z,5.20
2018-11-14T21:35:31.728Z,5.10
2018-11-14T21:38:01.833Z,5.10
2018-11-14T21:40:31.124Z,5.10
2018-11-14T21:43:00.627Z,5.20
2018-11-14T21:45:30.270Z,5.10
2018-11-14T21:48:04.787Z,5.10
2018-11-14T21:50:34.069Z,5.20
2018-11-14T21:53:03.413Z,5.30
2018-11-14T21:55:32.688Z,5.40
2018-11-14T21:58:01.760Z,5.40
2018-11-14T22:00:31.583Z,5.40
2018-11-14T22:03:01.462Z,5.40
2018-11-14T22:05:31.016Z,5.40
2018-11-14T22:08:00.644Z,5.50
2018-11-14T22:10:30.388Z,5.40
2018-11-14T22:12:59.403Z,5.30
2018-11-14T22:15:29.384Z,5.30
2018-11-14T22:18:01.923Z,5.30
2018-11-14T22:20:31.781Z,5.40
2018-11-14T22:23:00.988Z,5.50
2018-11-14T22:25:30.647Z,5.70
2018-11-14T22:27:59.972Z,5.70
2018-11-14T22:30:31.582Z,5.80
2018-11-14T22:33:00.636Z,6.00
2018-11-14T22:35:31.044Z,6.00
2018-11-14T22:38:00.460Z,6.10
2018-11-14T22:40:30.736Z,6.20
2018-11-14T22:42:59.931Z,6.20
2018-11-14T22:45:31.587Z,6.20
2018-11-14T22:48:01.204Z,6.30
2018-11-14T22:50:30.655Z,6.40
2018-11-14T22:52:59.955Z,6.40
2018-11-14T22:55:29.078Z,6.50
2018-11-14T22:57:58.382Z,6.50
2018-11-14T23:00:31.927Z,6.50
2018-11-14T23:03:02.629Z,6.60
2018-11-14T23:05:31.574Z,6.60
2018-11-14T23:08:01.329Z,6.70
2018-11-14T23:10:30.491Z,6.70
2018-11-14T23:12:59.742Z,6.80
2018-11-14T23:15:29.117Z,6.80
2018-11-14T23:17:58.271Z,6.90
2018-11-14T23:20:27.665Z,6.90
2018-11-14T23:22:56.708Z,6.90
2018-11-14T23:25:26.603Z,7.00
2018-11-14T23:27:56.621Z,7.00
2018-11-14T23:30:26.928Z,7.00
2018-11-14T23:32:56.423Z,7.10
2018-11-14T23:35:26.845Z,7.10
2018-11-14T23:37:58.172Z,7.10
2018-11-14T23:40:27.545Z,7.20
2018-11-14T23:42:56.934Z,7.20
2018-11-14T23:45:27.173Z,7.30
2018-11-14T23:47:56.473Z,7.30
2018-11-14T23:50:27.818Z,7.30
2018-11-14T23:52:58.007Z,7.40
2018-11-14T23:55:27.924Z,7.40
2018-11-14T23:57:57.417Z,7.40
